createdAt,value
2018-08-18T00:00:19.083Z,101570.00
2018-08-18T00:02:48.004Z,101561.00
2018-08-18T00:05:17.520Z,101559.00
2018-08-18T00:07:46.753Z,101550.00
2018-08-18T00:10:21.256Z,101548.00
2018-08-18T00:12:50.145Z,101568.00
2018-08-18T00:15:19.527Z,101567.00
2018-08-18T00:17:50.307Z,101569.00
2018-08-18T00:20:23.530Z,101564.00
2018-08-18T00:22:52.428Z,101573.00
2018-08-18T00:25:21.231Z,101580.00
2018-08-18T00:27:50.587Z,101590.00
2018-08-18T00:30:24.665Z,101584.00
2018-08-18T00:32:55.477Z,101577.00
2018-08-18T00:35:24.511Z,101588.00
2018-08-18T00:37:53.964Z,101592.00
2018-08-18T00:40:22.827Z,101600.00
2018-08-18T00:42:51.656Z,101612.00
2018-08-18T00:45:20.473Z,101615.00
2018-08-18T00:47:49.498Z,101606.00
2018-08-18T00:50:44.094Z,101617.00
2018-08-18T00:53:15.110Z,101615.00
2018-08-18T00:55:43.974Z,101612.00
2018-08-18T00:58:21.796Z,101606.00
2018-08-18T01:00:56.098Z,101613.00
2018-08-18T01:03:24.931Z,101615.00
2018-08-18T01:05:53.926Z,101618.00
2018-08-18T01:08:22.766Z,101618.00
2018-08-18T01:10:51.691Z,101613.00
2018-08-18T01:13:20.539Z,101614.00
2018-08-18T01:15:49.306Z,101608.00
2018-08-18T01:18:18.210Z,101616.00
2018-08-18T01:20:47.022Z,101621.00
2018-08-18T01:23:15.831Z,101622.00
2018-08-18T01:25:44.659Z,101642.00
2018-08-18T01:28:13.846Z,101633.00
2018-08-18T01:30:42.657Z,101644.00
2018-08-18T01:33:11.479Z,101644.00
2018-08-18T01:35:40.274Z,101657.00
2018-08-18T01:38:09.094Z,101646.00
2018-08-18T01:40:38.079Z,101649.00
2018-08-18T01:43:07.742Z,101650.00
2018-08-18T01:45:36.552Z,101644.00
2018-08-18T01:48:05.606Z,101652.00
2018-08-18T01:50:34.418Z,101642.00
2018-08-18T01:53:03.222Z,101637.00
2018-08-18T01:55:32.058Z,101635.00
2018-08-18T01:58:00.860Z,101638.00
2018-08-18T02:00:29.679Z,101642.00
2018-08-18T02:02:58.664Z,101643.00
2018-08-18T02:05:27.477Z,101645.00
2018-08-18T02:07:56.285Z,101647.00
2018-08-18T02:10:25.090Z,101644.00
2018-08-18T02:13:04.109Z,101654.00
2018-08-18T02:15:32.997Z,101636.00
2018-08-18T02:18:01.814Z,101654.00
2018-08-18T02:20:30.650Z,101659.00
2018-08-18T02:22:59.677Z,101656.00
2018-08-18T02:25:28.481Z,101662.00
2018-08-18T02:27:57.298Z,101670.00
2018-08-18T02:30:26.777Z,101664.00
2018-08-18T02:32:55.607Z,101670.00
2018-08-18T02:35:24.491Z,101674.00
2018-08-18T02:37:53.391Z,101654.00
2018-08-18T02:40:22.223Z,101657.00
2018-08-18T02:42:51.276Z,101662.00
2018-08-18T02:45:20.306Z,101669.00
2018-08-18T02:48:00.669Z,101655.00
2018-08-18T02:50:29.534Z,101650.00
2018-08-18T02:52:58.324Z,101649.00
2018-08-18T02:55:27.121Z,101656.00
2018-08-18T02:57:55.949Z,101665.00
2018-08-18T03:00:30.343Z,101671.00
2018-08-18T03:02:59.455Z,101658.00
2018-08-18T03:05:28.307Z,101667.00
2018-08-18T03:07:57.265Z,101674.00
2018-08-18T03:10:26.934Z,101676.00
2018-08-18T03:12:59.584Z,101665.00
2018-08-18T03:16:09.872Z,101663.00
2018-08-18T03:18:43.810Z,101672.00
2018-08-18T03:21:12.977Z,101677.00
2018-08-18T03:23:59.517Z,101682.00
2018-08-18T03:26:33.677Z,101680.00
2018-08-18T03:29:03.024Z,101680.00
2018-08-18T03:31:32.098Z,101698.00
2018-08-18T03:34:00.890Z,101704.00
2018-08-18T03:36:32.616Z,101694.00
2018-08-18T03:39:01.413Z,101693.00
2018-08-18T03:41:30.734Z,101698.00
2018-08-18T03:43:59.636Z,101705.00
2018-08-18T03:46:28.466Z,101700.00
2018-08-18T03:48:57.310Z,101697.00
2018-08-18T03:51:31.529Z,101698.00
2018-08-18T03:54:01.230Z,101697.00
2018-08-18T03:56:30.592Z,101697.00
2018-08-18T03:58:59.810Z,101702.00
2018-08-18T04:01:48.371Z,101703.00
2018-08-18T04:04:18.798Z,101703.00
2018-08-18T04:06:49.082Z,101699.00
2018-08-18T04:09:22.290Z,101701.00
2018-08-18T04:11:51.516Z,101696.00
2018-08-18T04:14:27.754Z,101682.00
2018-08-18T04:16:57.146Z,101682.00
2018-08-18T04:19:26.243Z,101681.00
2018-08-18T04:21:55.906Z,101677.00
2018-08-18T04:24:32.311Z,101682.00
2018-08-18T04:27:02.112Z,101684.00
2018-08-18T04:29:30.939Z,101689.00
2018-08-18T04:32:01.070Z,101682.00
2018-08-18T04:34:29.924Z,101661.00
2018-08-18T04:37:00.004Z,101651.00
2018-08-18T04:39:28.840Z,101657.00
2018-08-18T04:41:57.842Z,101662.00
2018-08-18T04:44:27.709Z,101671.00
2018-08-18T04:46:56.513Z,101673.00
2018-08-18T04:49:25.332Z,101679.00
2018-08-18T04:51:54.148Z,101677.00
2018-08-18T04:54:22.945Z,101680.00
2018-08-18T04:56:51.848Z,101666.00
2018-08-18T04:59:22.823Z,101663.00
2018-08-18T05:01:51.626Z,101675.00
2018-08-18T05:04:20.637Z,101671.00
2018-08-18T05:06:49.550Z,101669.00
2018-08-18T05:09:18.399Z,101667.00
2018-08-18T05:11:47.329Z,101670.00
2018-08-18T05:14:16.108Z,101667.00
2018-08-18T05:16:44.925Z,101669.00
2018-08-18T05:19:13.778Z,101670.00
2018-08-18T05:21:42.565Z,101658.00
2018-08-18T05:24:25.207Z,101672.00
2018-08-18T05:26:55.179Z,101672.00
2018-08-18T05:29:24.000Z,101676.00
2018-08-18T05:31:52.820Z,101673.00
2018-08-18T05:34:22.147Z,101665.00
2018-08-18T05:36:50.943Z,101673.00
2018-08-18T05:39:19.742Z,101675.00
2018-08-18T05:41:49.002Z,101687.00
2018-08-18T05:44:17.789Z,101679.00
2018-08-18T05:46:47.607Z,101674.00
2018-08-18T05:49:17.050Z,101676.00
2018-08-18T05:51:48.671Z,101685.00
2018-08-18T05:54:24.679Z,101683.00
2018-08-18T05:56:53.503Z,101671.00
2018-08-18T05:59:22.366Z,101684.00
2018-08-18T06:01:51.270Z,101684.00
2018-08-18T06:04:21.350Z,101682.00
2018-08-18T06:06:51.002Z,101682.00
2018-08-18T06:09:21.134Z,101684.00
2018-08-18T06:11:49.997Z,101684.00
2018-08-18T06:14:19.285Z,101679.00
2018-08-18T06:16:48.154Z,101677.00
2018-08-18T06:19:24.240Z,101673.00
2018-08-18T06:21:53.784Z,101679.00
2018-08-18T06:24:22.579Z,101682.00
2018-08-18T06:26:51.407Z,101686.00
2018-08-18T06:29:20.250Z,101690.00
2018-08-18T06:32:02.252Z,101691.00
2018-08-18T06:34:33.299Z,101690.00
2018-08-18T06:37:02.232Z,101703.00
2018-08-18T06:39:51.016Z,101719.00
2018-08-18T06:42:45.792Z,101721.00
2018-08-18T06:45:18.655Z,101725.00
2018-08-18T06:47:47.493Z,101722.00
2018-08-18T06:50:17.395Z,101723.00
2018-08-18T06:52:46.807Z,101720.00
2018-08-18T06:55:17.060Z,101733.00
2018-08-18T06:57:49.711Z,101736.00
2018-08-18T07:00:20.680Z,101735.00
2018-08-18T07:02:49.539Z,101739.00
2018-08-18T07:05:19.709Z,101740.00
2018-08-18T07:07:49.345Z,101745.00
2018-08-18T07:10:32.905Z,101748.00
2018-08-18T07:13:04.051Z,101750.00
2018-08-18T07:15:35.695Z,101750.00
2018-08-18T07:18:06.578Z,101743.00
2018-08-18T07:20:35.664Z,101745.00
2018-08-18T07:23:04.588Z,101740.00
2018-08-18T07:25:33.412Z,101754.00
2018-08-18T07:28:07.573Z,101766.00
2018-08-18T07:30:36.683Z,101766.00
2018-08-18T07:33:05.622Z,101767.00
2018-08-18T07:35:35.946Z,101773.00
2018-08-18T07:38:04.883Z,101776.00
2018-08-18T07:40:46.100Z,101776.00
2018-08-18T07:43:19.976Z,101777.00
2018-08-18T07:45:49.522Z,101785.00
2018-08-18T07:48:18.330Z,101778.00
2018-08-18T07:50:47.154Z,101792.00
2018-08-18T07:53:16.201Z,101789.00
2018-08-18T07:55:44.889Z,101774.00
2018-08-18T07:58:16.033Z,101788.00
2018-08-18T08:00:44.942Z,101787.00
2018-08-18T08:03:14.941Z,101791.00
2018-08-18T08:05:43.982Z,101794.00
2018-08-18T08:08:13.234Z,101783.00
2018-08-18T08:10:42.205Z,101791.00
2018-08-18T08:13:11.810Z,101797.00
2018-08-18T08:15:41.297Z,101796.00
2018-08-18T08:18:12.693Z,101791.00
2018-08-18T08:20:42.206Z,101808.00
2018-08-18T08:23:11.309Z,101792.00
2018-08-18T08:25:40.145Z,101801.00
2018-08-18T08:28:08.992Z,101806.00
2018-08-18T08:30:37.824Z,101809.00
2018-08-18T08:33:06.624Z,101802.00
2018-08-18T08:35:38.171Z,101800.00
2018-08-18T08:38:07.009Z,101803.00
2018-08-18T08:40:35.879Z,101804.00
2018-08-18T08:43:04.709Z,101804.00
2018-08-18T08:45:33.589Z,101802.00
2018-08-18T08:48:02.455Z,101807.00
2018-08-18T08:50:31.284Z,101821.00
2018-08-18T08:53:00.111Z,101815.00
2018-08-18T08:55:29.550Z,101803.00
2018-08-18T08:57:58.470Z,101802.00
2018-08-18T09:00:27.275Z,101796.00
2018-08-18T09:02:56.065Z,101797.00
2018-08-18T09:05:25.159Z,101793.00
2018-08-18T09:07:53.969Z,101793.00
2018-08-18T09:10:22.813Z,101801.00
2018-08-18T09:12:51.604Z,101802.00
2018-08-18T09:15:20.429Z,101793.00
2018-08-18T09:17:49.332Z,101797.00
2018-08-18T09:20:19.888Z,101784.00
2018-08-18T09:22:56.778Z,101795.00
2018-08-18T09:25:27.731Z,101796.00
2018-08-18T09:28:00.888Z,101794.00
2018-08-18T09:30:30.908Z,101760.00
2018-08-18T09:33:03.472Z,101808.00
2018-08-18T09:35:53.669Z,101805.00
2018-08-18T09:38:22.694Z,101801.00
2018-08-18T09:40:52.398Z,101798.00
2018-08-18T09:43:23.859Z,101800.00
2018-08-18T09:45:54.408Z,101801.00
2018-08-18T09:48:24.317Z,101804.00
2018-08-18T09:50:53.758Z,101806.00
2018-08-18T09:53:23.512Z,101807.00
2018-08-18T09:55:52.780Z,101801.00
2018-08-18T09:58:21.643Z,101810.00
2018-08-18T10:00:50.465Z,101806.00
2018-08-18T10:03:19.307Z,101807.00
2018-08-18T10:05:48.126Z,101807.00
2018-08-18T10:08:16.927Z,101812.00
2018-08-18T10:10:45.749Z,101806.00
2018-08-18T10:13:14.827Z,101817.00
2018-08-18T10:15:43.687Z,101815.00
2018-08-18T10:18:13.627Z,101816.00
2018-08-18T10:20:50.816Z,101814.00
2018-08-18T10:23:20.150Z,101795.00
2018-08-18T10:25:49.038Z,101814.00
2018-08-18T10:28:19.353Z,101813.00
2018-08-18T10:30:48.192Z,101803.00
2018-08-18T10:33:16.991Z,101811.00
2018-08-18T10:35:46.727Z,101807.00
2018-08-18T10:38:15.698Z,101805.00
2018-08-18T10:40:44.589Z,101805.00
2018-08-18T10:43:13.395Z,101808.00
2018-08-18T10:45:44.162Z,101806.00
2018-08-18T10:48:14.445Z,101801.00
2018-08-18T10:51:59.246Z,101807.00
2018-08-18T10:54:28.073Z,101806.00
2018-08-18T10:56:56.883Z,101799.00
2018-08-18T10:59:43.287Z,101803.00
2018-08-18T11:02:12.146Z,101805.00
2018-08-18T11:04:40.976Z,101809.00
2018-08-18T11:07:09.822Z,101806.00
2018-08-18T11:09:38.633Z,101806.00
2018-08-18T11:12:07.435Z,101809.00
2018-08-18T11:14:36.275Z,101799.00
2018-08-18T11:17:05.081Z,101804.00
2018-08-18T11:19:33.888Z,101797.00
2018-08-18T11:22:24.996Z,101796.00
2018-08-18T11:24:54.269Z,101792.00
2018-08-18T11:27:23.071Z,101799.00
2018-08-18T11:29:52.486Z,101786.00
2018-08-18T11:32:21.303Z,101791.00
2018-08-18T11:34:50.671Z,101787.00
2018-08-18T11:37:19.906Z,101783.00
2018-08-18T11:39:53.855Z,101789.00
2018-08-18T11:42:23.016Z,101792.00
2018-08-18T11:44:52.603Z,101785.00
2018-08-18T11:47:21.417Z,101774.00
2018-08-18T11:49:56.915Z,101774.00
2018-08-18T11:52:25.746Z,101778.00
2018-08-18T11:54:54.606Z,101768.00
2018-08-18T11:57:23.463Z,101775.00
2018-08-18T11:59:52.890Z,101768.00
2018-08-18T12:02:22.069Z,101767.00
2018-08-18T12:04:51.232Z,101776.00
2018-08-18T12:07:20.060Z,101768.00
2018-08-18T12:09:52.802Z,101761.00
2018-08-18T12:12:22.505Z,101768.00
2018-08-18T12:14:51.341Z,101756.00
2018-08-18T12:17:20.174Z,101761.00
2018-08-18T12:19:50.870Z,101761.00
2018-08-18T12:22:19.708Z,101763.00
2018-08-18T12:24:53.924Z,101749.00
2018-08-18T12:27:22.753Z,101748.00
2018-08-18T12:29:51.734Z,101757.00
2018-08-18T12:32:25.892Z,101750.00
2018-08-18T12:34:56.455Z,101754.00
2018-08-18T12:37:27.420Z,101750.00
2018-08-18T12:39:57.988Z,101746.00
2018-08-18T12:42:27.747Z,101742.00
2018-08-18T12:44:57.536Z,101740.00
2018-08-18T12:47:26.336Z,101744.00
2018-08-18T12:49:55.204Z,101743.00
2018-08-18T12:52:23.967Z,101735.00
2018-08-18T12:54:52.771Z,101742.00
2018-08-18T12:57:38.805Z,101735.00
2018-08-18T13:00:08.534Z,101736.00
2018-08-18T13:02:46.535Z,101730.00
2018-08-18T13:05:15.593Z,101726.00
2018-08-18T13:07:45.243Z,101722.00
2018-08-18T13:10:23.517Z,101715.00
2018-08-18T13:12:53.220Z,101714.00
2018-08-18T13:15:22.151Z,101707.00
2018-08-18T13:17:51.260Z,101718.00
2018-08-18T13:20:23.234Z,101720.00
2018-08-18T13:22:52.056Z,101712.00
2018-08-18T13:25:20.941Z,101711.00
2018-08-18T13:27:53.862Z,101703.00
2018-08-18T13:30:23.442Z,101710.00
2018-08-18T13:32:54.705Z,101695.00
2018-08-18T13:35:23.539Z,101699.00
2018-08-18T13:37:53.219Z,101694.00
2018-08-18T13:40:25.982Z,101698.00
2018-08-18T13:42:55.763Z,101689.00
2018-08-18T13:45:45.075Z,101693.00
2018-08-18T13:48:14.639Z,101700.00
2018-08-18T13:50:43.433Z,101690.00
2018-08-18T13:53:12.546Z,101686.00
2018-08-18T13:55:42.168Z,101682.00
2018-08-18T13:58:12.790Z,101687.00
2018-08-18T14:00:41.651Z,101688.00
2018-08-18T14:03:26.035Z,101684.00
2018-08-18T14:05:55.651Z,101692.00
2018-08-18T14:08:24.507Z,101683.00
2018-08-18T14:10:53.363Z,101691.00
2018-08-18T14:13:23.198Z,101683.00
2018-08-18T14:15:56.157Z,101684.00
2018-08-18T14:18:25.204Z,101669.00
2018-08-18T14:21:04.785Z,101674.00
2018-08-18T14:23:33.600Z,101677.00
2018-08-18T14:26:02.422Z,101681.00
2018-08-18T14:28:31.281Z,101669.00
2018-08-18T14:31:01.062Z,101678.00
2018-08-18T14:33:30.354Z,101682.00
2018-08-18T14:36:05.357Z,101671.00
2018-08-18T14:38:35.342Z,101673.00
2018-08-18T14:41:04.189Z,101675.00
2018-08-18T14:43:37.009Z,101674.00
2018-08-18T14:46:09.298Z,101663.00
2018-08-18T14:48:39.305Z,101664.00
2018-08-18T14:51:08.560Z,101668.00
2018-08-18T14:53:41.440Z,101658.00
2018-08-18T14:56:10.336Z,101666.00
2018-08-18T14:58:42.715Z,101662.00
2018-08-18T15:01:12.727Z,101668.00
2018-08-18T15:03:42.213Z,101657.00
2018-08-18T15:06:12.464Z,101670.00
2018-08-18T15:08:41.582Z,101663.00
2018-08-18T15:11:10.347Z,101664.00
2018-08-18T15:13:39.153Z,101661.00
2018-08-18T15:16:07.981Z,101664.00
2018-08-18T15:18:37.747Z,101663.00
2018-08-18T15:21:07.125Z,101652.00
2018-08-18T15:23:35.866Z,101660.00
2018-08-18T15:26:05.729Z,101649.00
2018-08-18T15:28:34.827Z,101644.00
2018-08-18T15:31:03.631Z,101651.00
2018-08-18T15:33:32.423Z,101648.00
2018-08-18T15:36:01.232Z,101637.00
2018-08-18T15:38:43.786Z,101640.00
2018-08-18T15:41:12.939Z,101644.00
2018-08-18T15:43:41.754Z,101636.00
2018-08-18T15:46:10.571Z,101630.00
2018-08-18T15:48:41.643Z,101640.00
2018-08-18T15:51:10.601Z,101634.00
2018-08-18T15:53:49.891Z,101634.00
2018-08-18T15:56:19.754Z,101630.00
2018-08-18T15:58:49.451Z,101623.00
2018-08-18T16:01:19.098Z,101631.00
2018-08-18T16:03:47.899Z,101625.00
2018-08-18T16:06:16.701Z,101622.00
2018-08-18T16:08:46.055Z,101617.00
2018-08-18T16:11:15.257Z,101627.00
2018-08-18T16:13:44.176Z,101633.00
2018-08-18T16:16:12.893Z,101609.00
2018-08-18T16:18:41.726Z,101617.00
2018-08-18T16:21:14.745Z,101622.00
2018-08-18T16:23:44.041Z,101624.00
2018-08-18T16:26:13.521Z,101620.00
2018-08-18T16:28:43.423Z,101624.00
2018-08-18T16:31:13.551Z,101619.00
2018-08-18T16:33:42.743Z,101623.00
2018-08-18T16:36:11.614Z,101617.00
2018-08-18T16:38:40.731Z,101608.00
2018-08-18T16:41:09.552Z,101599.00
2018-08-18T16:43:38.549Z,101627.00
2018-08-18T16:46:31.250Z,101626.00
2018-08-18T16:49:01.079Z,101622.00
2018-08-18T16:51:29.888Z,101620.00
2018-08-18T16:54:19.062Z,101609.00
2018-08-18T16:56:47.913Z,101620.00
2018-08-18T16:59:16.740Z,101625.00
2018-08-18T17:01:45.576Z,101624.00
2018-08-18T17:04:18.769Z,101621.00
2018-08-18T17:06:47.912Z,101617.00
2018-08-18T17:09:40.175Z,101619.00
2018-08-18T17:12:17.635Z,101622.00
2018-08-18T17:14:46.537Z,101623.00
2018-08-18T17:17:15.414Z,101624.00
2018-08-18T17:19:45.063Z,101620.00
2018-08-18T17:22:15.406Z,101630.00
2018-08-18T17:24:44.193Z,101630.00
2018-08-18T17:27:13.644Z,101623.00
2018-08-18T17:29:44.155Z,101625.00
2018-08-18T17:32:12.946Z,101618.00
2018-08-18T17:34:41.746Z,101630.00
2018-08-18T17:37:10.546Z,101621.00
2018-08-18T17:39:39.654Z,101632.00
2018-08-18T17:42:08.480Z,101634.00
2018-08-18T17:44:37.322Z,101630.00
2018-08-18T17:47:11.078Z,101645.00
2018-08-18T17:49:46.517Z,101642.00
2018-08-18T17:52:15.359Z,101641.00
2018-08-18T17:54:59.341Z,101655.00
2018-08-18T17:57:28.171Z,101650.00
2018-08-18T17:59:56.987Z,101661.00
2018-08-18T18:02:25.802Z,101657.00
2018-08-18T18:05:00.325Z,101662.00
2018-08-18T18:07:29.126Z,101673.00
2018-08-18T18:09:57.922Z,101664.00
2018-08-18T18:12:27.596Z,101671.00
2018-08-18T18:14:56.703Z,101671.00
2018-08-18T18:17:25.955Z,101671.00
2018-08-18T18:19:57.432Z,101669.00
2018-08-18T18:22:36.830Z,101674.00
2018-08-18T18:25:07.259Z,101683.00
2018-08-18T18:27:36.088Z,101681.00
2018-08-18T18:30:05.000Z,101682.00
2018-08-18T18:32:33.825Z,101688.00
2018-08-18T18:35:02.682Z,101694.00
2018-08-18T18:37:31.431Z,101691.00
2018-08-18T18:40:03.405Z,101693.00
2018-08-18T18:42:32.225Z,101699.00
2018-08-18T18:45:01.030Z,101698.00
2018-08-18T18:47:30.374Z,101693.00
2018-08-18T18:49:59.178Z,101700.00
2018-08-18T18:52:28.030Z,101695.00
2018-08-18T18:54:58.240Z,101696.00
2018-08-18T18:57:27.129Z,101708.00
2018-08-18T18:59:56.978Z,101703.00
2018-08-18T19:02:38.149Z,101703.00
2018-08-18T19:05:21.866Z,101711.00
2018-08-18T19:08:00.785Z,101702.00
2018-08-18T19:10:29.770Z,101708.00
2018-08-18T19:12:58.588Z,101710.00
2018-08-18T19:15:28.250Z,101713.00
2018-08-18T19:17:57.062Z,101712.00
2018-08-18T19:20:28.140Z,101709.00
2018-08-18T19:23:05.539Z,101712.00
2018-08-18T19:25:35.351Z,101709.00
2018-08-18T19:28:04.185Z,101716.00
2018-08-18T19:30:33.849Z,101716.00
2018-08-18T19:33:02.944Z,101712.00
2018-08-18T19:35:36.829Z,101714.00
2018-08-18T19:38:06.334Z,101711.00
2018-08-18T19:40:36.685Z,101713.00
2018-08-18T19:43:11.878Z,101716.00
2018-08-18T19:45:40.714Z,101713.00
2018-08-18T19:48:09.870Z,101718.00
2018-08-18T19:50:43.696Z,101716.00
2018-08-18T19:53:12.473Z,101718.00
2018-08-18T19:55:41.292Z,101713.00
2018-08-18T19:58:10.161Z,101716.00
2018-08-18T20:00:38.991Z,101718.00
2018-08-18T20:03:09.180Z,101716.00
2018-08-18T20:05:38.289Z,101712.00
2018-08-18T20:08:07.141Z,101718.00
2018-08-18T20:11:11.073Z,101720.00
2018-08-18T20:13:39.920Z,101718.00
2018-08-18T20:16:08.758Z,101718.00
2018-08-18T20:18:37.646Z,101717.00
2018-08-18T20:21:06.462Z,101723.00
2018-08-18T20:23:35.304Z,101719.00
2018-08-18T20:26:04.574Z,101724.00
2018-08-18T20:28:33.395Z,101721.00
2018-08-18T20:31:02.961Z,101729.00
2018-08-18T20:33:31.766Z,101725.00
2018-08-18T20:36:00.576Z,101730.00
2018-08-18T20:38:33.529Z,101726.00
2018-08-18T20:41:02.819Z,101724.00
2018-08-18T20:43:31.615Z,101726.00
2018-08-18T20:46:01.715Z,101719.00
2018-08-18T20:48:31.087Z,101718.00
2018-08-18T20:50:59.813Z,101722.00
2018-08-18T20:53:28.674Z,101724.00
2018-08-18T20:55:59.814Z,101721.00
2018-08-18T20:58:29.363Z,101717.00
2018-08-18T21:00:58.189Z,101711.00
2018-08-18T21:03:58.774Z,101716.00
2018-08-18T21:06:27.599Z,101723.00
2018-08-18T21:08:56.463Z,101719.00
2018-08-18T21:11:25.311Z,101726.00
2018-08-18T21:13:54.787Z,101729.00
2018-08-18T21:16:23.839Z,101727.00
2018-08-18T21:18:52.842Z,101736.00
2018-08-18T21:21:32.701Z,101730.00
2018-08-18T21:24:01.876Z,101737.00
2018-08-18T21:26:31.518Z,101732.00
2018-08-18T21:29:00.347Z,101729.00
2018-08-18T21:31:32.935Z,101728.00
2018-08-18T21:34:02.829Z,101722.00
2018-08-18T21:36:32.261Z,101735.00
2018-08-18T21:39:05.549Z,101736.00
2018-08-18T21:41:37.942Z,101732.00
2018-08-18T21:44:08.976Z,101734.00
2018-08-18T21:46:38.175Z,101733.00
2018-08-18T21:49:07.122Z,101742.00
2018-08-18T21:51:35.960Z,101739.00
2018-08-18T21:54:04.798Z,101732.00
2018-08-18T21:56:38.131Z,101734.00
2018-08-18T21:59:09.111Z,101736.00
2018-08-18T22:01:37.933Z,101729.00
2018-08-18T22:04:07.487Z,101731.00
2018-08-18T22:06:36.331Z,101731.00
2018-08-18T22:09:21.780Z,101726.00
2018-08-18T22:11:50.667Z,101730.00
2018-08-18T22:14:19.733Z,101721.00
2018-08-18T22:16:54.270Z,101727.00
2018-08-18T22:19:23.218Z,101729.00
2018-08-18T22:21:52.113Z,101738.00
2018-08-18T22:24:20.993Z,101736.00
2018-08-18T22:26:50.289Z,101742.00
2018-08-18T22:29:23.229Z,101735.00
2018-08-18T22:31:52.539Z,101724.00
2018-08-18T22:34:21.391Z,101734.00
2018-08-18T22:36:50.504Z,101736.00
2018-08-18T22:39:19.411Z,101738.00
2018-08-18T22:41:48.813Z,101736.00
2018-08-18T22:44:17.620Z,101739.00
2018-08-18T22:46:46.443Z,101734.00
2018-08-18T22:49:15.256Z,101735.00
2018-08-18T22:51:45.081Z,101737.00
2018-08-18T22:54:13.926Z,101731.00
2018-08-18T22:56:47.366Z,101739.00
2018-08-18T22:59:16.194Z,101736.00
2018-08-18T23:01:45.014Z,101740.00
2018-08-18T23:04:29.691Z,101745.00
2018-08-18T23:06:59.725Z,101740.00
2018-08-18T23:09:30.956Z,101738.00
2018-08-18T23:12:01.629Z,101737.00
2018-08-18T23:14:34.427Z,101744.00
2018-08-18T23:17:03.586Z,101736.00
2018-08-18T23:19:33.165Z,101736.00
2018-08-18T23:22:02.351Z,101746.00
2018-08-18T23:24:36.626Z,101734.00
2018-08-18T23:27:05.713Z,101734.00
2018-08-18T23:29:34.527Z,101732.00
2018-08-18T23:32:14.736Z,101737.00
2018-08-18T23:34:43.526Z,101741.00
2018-08-18T23:37:16.560Z,101738.00
2018-08-18T23:39:45.394Z,101740.00
2018-08-18T23:42:19.502Z,101742.00
2018-08-18T23:44:49.118Z,101744.00
2018-08-18T23:47:18.360Z,101741.00
2018-08-18T23:49:47.813Z,101741.00
2018-08-18T23:52:16.830Z,101740.00
2018-08-18T23:54:45.652Z,101739.00
2018-08-18T23:57:16.968Z,101742.00
2018-08-18T23:59:46.154Z,101746.00
